createdAt,value
2022-08-31T00:01:20.546Z,17.81
2022-08-31T00:03:59.767Z,17.80
2022-08-31T00:06:26.414Z,17.62
2022-08-31T00:08:53.346Z,17.77
2022-08-31T00:11:27.958Z,17.70
2022-08-31T00:13:59.941Z,17.67
2022-08-31T00:16:28.375Z,17.91
2022-08-31T00:18:55.050Z,17.67
2022-08-31T00:21:26.158Z,17.74
2022-08-31T00:23:53.662Z,17.42
2022-08-31T00:26:20.624Z,17.73
2022-08-31T00:28:47.374Z,17.64
2022-08-31T00:31:14.539Z,17.85
2022-08-31T00:33:41.534Z,17.81
2022-08-31T00:36:13.620Z,17.77
2022-08-31T00:38:41.432Z,17.66
2022-08-31T00:41:10.576Z,17.46
2022-08-31T00:43:52.808Z,17.54
2022-08-31T00:46:25.575Z,17.61
2022-08-31T00:48:58.472Z,17.57
2022-08-31T00:51:25.891Z,17.70
2022-08-31T00:53:52.516Z,17.84
2022-08-31T00:56:19.484Z,17.45
2022-08-31T00:58:46.216Z,17.78
2022-08-31T01:01:22.063Z,17.84
2022-08-31T01:03:48.676Z,17.56
2022-08-31T01:06:17.100Z,17.74
2022-08-31T01:08:45.083Z,17.57
2022-08-31T01:11:11.989Z,17.39
2022-08-31T01:13:38.513Z,17.17
2022-08-31T01:16:11.007Z,16.98
2022-08-31T01:18:38.341Z,16.93
2022-08-31T01:21:23.054Z,16.96
2022-08-31T01:23:49.886Z,16.95
2022-08-31T01:26:19.114Z,16.82
2022-08-31T01:28:45.593Z,16.87
2022-08-31T01:31:39.298Z,16.74
2022-08-31T01:34:05.756Z,16.83
2022-08-31T01:36:33.573Z,16.82
2022-08-31T01:39:00.319Z,16.83
2022-08-31T01:41:26.868Z,16.80
2022-08-31T01:43:54.589Z,16.77
2022-08-31T01:46:21.550Z,16.70
2022-08-31T01:48:49.015Z,16.59
2022-08-31T01:51:18.046Z,16.48
2022-08-31T01:53:48.496Z,16.42
2022-08-31T01:56:18.874Z,16.71
2022-08-31T01:58:45.404Z,16.48
2022-08-31T02:01:33.822Z,16.72
2022-08-31T02:03:58.384Z,16.53
2022-08-31T02:06:25.597Z,16.56
2022-08-31T02:08:52.130Z,16.55
2022-08-31T02:11:18.807Z,16.37
2022-08-31T02:13:45.780Z,16.31
2022-08-31T02:16:12.285Z,16.25
2022-08-31T02:18:38.760Z,16.35
2022-08-31T02:21:05.387Z,16.18
2022-08-31T02:23:31.841Z,16.16
2022-08-31T02:25:58.318Z,16.28
2022-08-31T02:28:24.797Z,16.18
2022-08-31T02:30:51.334Z,16.22
2022-08-31T02:33:17.877Z,16.10
2022-08-31T02:35:44.439Z,16.16
2022-08-31T02:38:11.405Z,16.14
2022-08-31T02:40:39.272Z,16.10
2022-08-31T02:43:14.248Z,16.17
2022-08-31T02:45:51.129Z,16.10
2022-08-31T02:48:20.343Z,16.23
2022-08-31T02:50:48.716Z,15.92
2022-08-31T02:53:16.703Z,16.06
2022-08-31T02:55:43.345Z,15.98
2022-08-31T02:58:11.048Z,15.87
2022-08-31T03:00:38.633Z,15.66
2022-08-31T03:03:05.412Z,15.97
2022-08-31T03:05:32.089Z,15.95
2022-08-31T03:07:58.560Z,16.04
2022-08-31T03:10:25.843Z,16.13
2022-08-31T03:12:53.345Z,16.03
2022-08-31T03:15:23.911Z,15.97
2022-08-31T03:17:50.960Z,15.88
2022-08-31T03:20:19.392Z,15.71
2022-08-31T03:22:45.932Z,15.51
2022-08-31T03:25:12.623Z,15.70
2022-08-31T03:27:39.117Z,15.62
2022-08-31T03:30:11.519Z,15.47
2022-08-31T03:32:39.031Z,15.65
2022-08-31T03:35:06.247Z,15.42
2022-08-31T03:37:32.796Z,15.61
2022-08-31T03:39:59.445Z,15.41
2022-08-31T03:42:26.578Z,15.33
2022-08-31T03:44:54.045Z,15.28
2022-08-31T03:47:21.153Z,15.36
2022-08-31T03:49:47.666Z,15.33
2022-08-31T03:52:14.281Z,15.21
2022-08-31T03:54:40.835Z,15.22
2022-08-31T03:57:08.102Z,15.12
2022-08-31T03:59:34.556Z,15.16
2022-08-31T04:02:01.030Z,14.92
2022-08-31T04:04:27.536Z,14.93
2022-08-31T04:06:54.005Z,15.01
2022-08-31T04:09:20.489Z,15.01
2022-08-31T04:11:46.886Z,15.15
2022-08-31T04:14:15.414Z,15.02
2022-08-31T04:16:43.656Z,15.01
2022-08-31T04:19:11.397Z,15.14
2022-08-31T04:21:38.193Z,14.94
2022-08-31T04:24:06.021Z,15.12
2022-08-31T04:26:34.806Z,14.92
2022-08-31T04:29:03.279Z,14.81
2022-08-31T04:31:30.066Z,14.87
2022-08-31T04:33:57.461Z,14.75
2022-08-31T04:36:25.874Z,14.90
2022-08-31T04:38:54.219Z,14.86
2022-08-31T04:41:22.114Z,14.59
2022-08-31T04:43:50.834Z,14.74
2022-08-31T04:46:18.645Z,14.81
2022-08-31T04:48:45.402Z,14.77
2022-08-31T04:51:14.442Z,14.81
2022-08-31T04:53:42.078Z,15.03
2022-08-31T04:56:14.916Z,14.90
2022-08-31T04:58:47.257Z,14.93
2022-08-31T05:01:17.371Z,15.17
2022-08-31T05:03:44.016Z,14.98
2022-08-31T05:06:17.583Z,15.16
2022-08-31T05:08:44.598Z,15.03
2022-08-31T05:11:17.019Z,15.22
2022-08-31T05:13:43.969Z,15.23
2022-08-31T05:16:11.843Z,15.30
2022-08-31T05:18:42.559Z,15.30
2022-08-31T05:21:17.854Z,15.55
2022-08-31T05:23:48.037Z,15.44
2022-08-31T05:26:21.601Z,15.41
2022-08-31T05:28:51.190Z,15.45
2022-08-31T05:31:18.079Z,15.41
2022-08-31T05:33:44.941Z,15.54
2022-08-31T05:36:12.386Z,15.35
2022-08-31T05:38:39.899Z,15.63
2022-08-31T05:41:06.945Z,15.79
2022-08-31T05:43:34.405Z,15.99
2022-08-31T05:46:01.061Z,15.94
2022-08-31T05:48:33.393Z,16.00
2022-08-31T05:51:03.187Z,16.23
2022-08-31T05:53:29.693Z,16.31
2022-08-31T05:56:00.832Z,16.47
2022-08-31T05:58:27.967Z,16.38
2022-08-31T06:00:54.404Z,16.55
2022-08-31T06:03:20.823Z,16.53
2022-08-31T06:05:47.350Z,16.79
2022-08-31T06:08:15.446Z,16.89
2022-08-31T06:10:42.031Z,16.97
2022-08-31T06:13:08.566Z,17.12
2022-08-31T06:15:35.466Z,17.13
2022-08-31T06:18:06.125Z,17.28
2022-08-31T06:20:32.569Z,17.28
2022-08-31T06:22:58.983Z,17.42
2022-08-31T06:25:26.054Z,17.19
2022-08-31T06:27:52.955Z,17.50
2022-08-31T06:30:21.930Z,17.53
2022-08-31T06:32:48.626Z,17.68
2022-08-31T06:35:15.125Z,17.72
2022-08-31T06:37:41.537Z,18.06
2022-08-31T06:40:08.583Z,18.02
2022-08-31T06:42:35.086Z,18.11
2022-08-31T06:45:01.866Z,18.35
2022-08-31T06:47:28.360Z,18.36
2022-08-31T06:49:57.151Z,18.52
2022-08-31T06:52:24.163Z,18.64
2022-08-31T06:54:50.616Z,18.81
2022-08-31T06:57:17.186Z,18.76
2022-08-31T06:59:44.236Z,18.95
2022-08-31T07:02:11.115Z,18.89
2022-08-31T07:04:39.168Z,19.04
2022-08-31T07:07:07.550Z,19.36
2022-08-31T07:09:34.122Z,19.68
2022-08-31T07:12:00.559Z,19.42
2022-08-31T07:14:27.804Z,19.61
2022-08-31T07:16:56.511Z,20.03
2022-08-31T07:19:23.391Z,20.16
2022-08-31T07:21:55.542Z,19.92
2022-08-31T07:24:25.719Z,20.05
2022-08-31T07:26:54.513Z,20.05
2022-08-31T07:29:22.377Z,20.34
2022-08-31T07:31:50.396Z,20.50
2022-08-31T07:34:25.932Z,20.69
2022-08-31T07:37:16.115Z,20.98
2022-08-31T07:40:06.879Z,21.17
2022-08-31T07:42:37.906Z,21.14
2022-08-31T07:45:06.200Z,21.09
2022-08-31T07:47:35.816Z,20.96
2022-08-31T07:50:02.323Z,20.98
2022-08-31T07:52:32.231Z,21.53
2022-08-31T07:55:09.360Z,21.04
2022-08-31T07:57:42.187Z,21.41
2022-08-31T08:00:09.267Z,21.34
2022-08-31T08:02:39.867Z,21.18
2022-08-31T08:05:12.743Z,21.58
2022-08-31T08:07:40.486Z,21.48
2022-08-31T08:10:14.127Z,21.25
2022-08-31T08:12:57.086Z,21.65
2022-08-31T08:15:26.648Z,21.85
2022-08-31T08:17:53.140Z,21.94
2022-08-31T08:20:34.541Z,22.20
2022-08-31T08:23:23.117Z,22.56
2022-08-31T08:25:53.423Z,22.85
2022-08-31T08:28:40.164Z,22.67
2022-08-31T08:31:13.095Z,22.79
2022-08-31T08:33:39.756Z,23.06
2022-08-31T08:36:07.906Z,23.03
2022-08-31T08:38:36.074Z,22.47
2022-08-31T08:41:06.242Z,22.75
2022-08-31T08:43:35.843Z,22.73
2022-08-31T08:46:25.316Z,22.62
2022-08-31T08:48:55.752Z,23.34
2022-08-31T08:51:26.356Z,23.73
2022-08-31T08:53:59.952Z,23.96
2022-08-31T08:56:33.406Z,23.89
2022-08-31T08:59:00.559Z,23.69
2022-08-31T09:01:29.061Z,23.68
2022-08-31T09:04:07.974Z,23.50
2022-08-31T09:07:07.086Z,23.00
2022-08-31T09:09:41.410Z,22.69
2022-08-31T09:12:20.774Z,23.27
2022-08-31T09:15:11.332Z,22.76
2022-08-31T09:17:59.945Z,22.72
2022-08-31T09:20:28.254Z,23.37
2022-08-31T09:22:57.106Z,23.29
2022-08-31T09:25:33.372Z,23.42
2022-08-31T09:28:01.675Z,23.78
2022-08-31T09:30:39.488Z,23.95
2022-08-31T09:33:07.527Z,23.43
2022-08-31T09:35:40.628Z,23.44
2022-08-31T09:38:16.251Z,23.79
2022-08-31T09:40:48.549Z,23.99
2022-08-31T09:43:24.919Z,23.79
2022-08-31T09:46:07.337Z,23.48
2022-08-31T09:48:44.064Z,24.25
2022-08-31T09:51:29.745Z,24.53
2022-08-31T09:54:22.190Z,24.36
2022-08-31T09:56:56.988Z,24.38
2022-08-31T09:59:30.724Z,24.78
2022-08-31T10:02:00.549Z,24.95
2022-08-31T10:04:31.806Z,25.34
2022-08-31T10:07:14.141Z,25.39
2022-08-31T10:09:51.008Z,25.53
2022-08-31T10:12:42.601Z,25.40
2022-08-31T10:15:32.425Z,25.31
2022-08-31T10:18:14.129Z,24.60
2022-08-31T10:20:48.246Z,24.69
2022-08-31T10:23:21.159Z,25.34
2022-08-31T10:25:54.593Z,25.22
2022-08-31T10:28:37.241Z,25.27
2022-08-31T10:31:22.277Z,24.09
2022-08-31T10:34:26.341Z,24.47
2022-08-31T10:36:59.985Z,24.60
2022-08-31T10:39:45.709Z,24.83
2022-08-31T10:42:19.516Z,24.39
2022-08-31T10:44:57.448Z,24.61
2022-08-31T10:47:33.811Z,24.67
2022-08-31T10:50:03.362Z,24.81
2022-08-31T10:52:33.801Z,25.18
2022-08-31T10:55:10.413Z,25.43
2022-08-31T10:58:15.002Z,24.52
2022-08-31T11:00:56.880Z,25.11
2022-08-31T11:03:35.549Z,25.19
2022-08-31T11:06:02.406Z,24.67
2022-08-31T11:08:50.055Z,24.15
2022-08-31T11:11:25.215Z,23.91
2022-08-31T11:14:04.998Z,24.74
2022-08-31T11:17:19.171Z,25.58
2022-08-31T11:19:51.053Z,24.79
2022-08-31T11:22:38.702Z,25.44
2022-08-31T11:25:28.453Z,25.61
2022-08-31T11:28:46.270Z,25.50
2022-08-31T11:31:23.533Z,25.86
2022-08-31T11:34:15.105Z,26.00
2022-08-31T11:36:50.325Z,25.99
2022-08-31T11:39:35.569Z,26.06
2022-08-31T11:42:28.319Z,25.95
2022-08-31T11:45:02.395Z,26.01
2022-08-31T11:47:28.914Z,26.22
2022-08-31T11:50:03.952Z,25.76
2022-08-31T11:52:43.402Z,25.64
2022-08-31T11:55:27.081Z,25.63
2022-08-31T11:58:11.761Z,25.97
2022-08-31T12:00:51.927Z,26.22
2022-08-31T12:03:36.949Z,26.50
2022-08-31T12:06:05.263Z,26.62
2022-08-31T12:08:52.648Z,26.41
2022-08-31T12:11:25.391Z,26.27
2022-08-31T12:14:01.262Z,26.16
2022-08-31T12:16:39.668Z,25.97
2022-08-31T12:19:49.845Z,26.02
2022-08-31T12:22:47.533Z,25.62
2022-08-31T12:25:41.844Z,26.18
2022-08-31T12:28:36.240Z,26.49
2022-08-31T12:31:15.751Z,26.34
2022-08-31T12:34:12.077Z,26.36
2022-08-31T12:36:38.637Z,26.48
2022-08-31T12:39:09.835Z,26.82
2022-08-31T12:41:56.670Z,26.87
2022-08-31T12:44:26.629Z,26.06
2022-08-31T12:47:15.312Z,25.74
2022-08-31T12:49:56.904Z,25.39
2022-08-31T12:52:44.974Z,25.26
2022-08-31T12:55:40.609Z,25.91
2022-08-31T12:58:34.379Z,26.44
2022-08-31T13:01:24.900Z,26.54
2022-08-31T13:03:55.559Z,26.73
2022-08-31T13:06:28.970Z,26.25
2022-08-31T13:08:55.966Z,26.29
2022-08-31T13:11:44.356Z,26.60
2022-08-31T13:14:20.883Z,26.74
2022-08-31T13:17:18.546Z,27.07
2022-08-31T13:19:56.393Z,26.17
2022-08-31T13:22:29.372Z,25.64
2022-08-31T13:24:57.510Z,25.83
2022-08-31T13:27:30.015Z,26.16
2022-08-31T13:29:59.202Z,26.49
2022-08-31T13:32:27.481Z,26.58
2022-08-31T13:34:54.987Z,26.87
2022-08-31T13:37:28.467Z,26.52
2022-08-31T13:39:56.011Z,26.89
2022-08-31T13:42:42.805Z,26.89
2022-08-31T13:45:30.479Z,26.71
2022-08-31T13:48:02.409Z,26.70
2022-08-31T13:50:52.268Z,26.24
2022-08-31T13:53:54.652Z,25.78
2022-08-31T13:56:48.877Z,25.88
2022-08-31T13:59:20.032Z,26.06
2022-08-31T14:01:48.061Z,26.27
2022-08-31T14:04:48.713Z,26.45
2022-08-31T14:07:46.589Z,26.84
2022-08-31T14:10:19.251Z,27.22
2022-08-31T14:13:02.476Z,26.47
2022-08-31T14:15:53.456Z,27.03
2022-08-31T14:18:42.943Z,27.37
2022-08-31T14:21:21.131Z,26.86
2022-08-31T14:24:02.830Z,26.60
2022-08-31T14:26:41.765Z,26.42
2022-08-31T14:29:12.345Z,26.68
2022-08-31T14:31:53.629Z,27.13
2022-08-31T14:34:30.259Z,26.57
2022-08-31T14:37:06.599Z,26.86
2022-08-31T14:39:37.190Z,26.27
2022-08-31T14:42:11.654Z,25.96
2022-08-31T14:44:41.455Z,25.95
2022-08-31T14:47:09.910Z,26.01
2022-08-31T14:49:36.997Z,26.13
2022-08-31T14:52:06.197Z,26.27
2022-08-31T14:54:37.768Z,26.68
2022-08-31T14:57:25.085Z,26.43
2022-08-31T14:59:56.818Z,26.48
2022-08-31T15:02:24.574Z,26.49
2022-08-31T15:04:51.731Z,26.98
2022-08-31T15:07:19.507Z,26.36
2022-08-31T15:09:47.820Z,26.02
2022-08-31T15:12:16.895Z,26.48
2022-08-31T15:14:44.827Z,26.77
2022-08-31T15:17:16.662Z,26.32
2022-08-31T15:19:47.631Z,26.49
2022-08-31T15:22:15.847Z,25.85
2022-08-31T15:24:44.751Z,26.10
2022-08-31T15:27:15.530Z,26.49
2022-08-31T15:29:43.444Z,26.45
2022-08-31T15:32:10.321Z,26.68
2022-08-31T15:34:37.800Z,26.62
2022-08-31T15:37:06.093Z,26.51
2022-08-31T15:39:35.685Z,26.65
2022-08-31T15:42:04.935Z,26.83
2022-08-31T15:44:33.470Z,26.85
2022-08-31T15:47:20.929Z,26.87
2022-08-31T15:49:47.344Z,26.62
2022-08-31T15:52:13.973Z,26.90
2022-08-31T15:54:40.679Z,26.65
2022-08-31T15:57:08.102Z,26.94
2022-08-31T15:59:39.379Z,26.94
2022-08-31T16:02:07.081Z,27.21
2022-08-31T16:04:38.357Z,27.00
2022-08-31T16:07:07.589Z,27.23
2022-08-31T16:09:34.532Z,26.98
2022-08-31T16:12:02.227Z,27.07
2022-08-31T16:14:33.414Z,26.87
2022-08-31T16:17:00.037Z,26.91
2022-08-31T16:19:35.039Z,26.84
2022-08-31T16:22:04.042Z,26.71
2022-08-31T16:24:37.084Z,26.64
2022-08-31T16:27:09.521Z,26.57
2022-08-31T16:29:36.398Z,26.41
2022-08-31T16:32:03.756Z,26.36
2022-08-31T16:34:31.559Z,26.32
2022-08-31T16:36:58.272Z,26.32
2022-08-31T16:39:28.021Z,26.21
2022-08-31T16:41:54.985Z,25.80
2022-08-31T16:44:21.498Z,25.49
2022-08-31T16:46:48.283Z,25.42
2022-08-31T16:49:33.592Z,24.87
2022-08-31T16:52:11.021Z,25.17
2022-08-31T16:54:42.837Z,25.23
2022-08-31T16:57:10.781Z,25.46
2022-08-31T16:59:37.361Z,25.40
2022-08-31T17:02:04.003Z,25.11
2022-08-31T17:07:18.416Z,25.43
2022-08-31T17:09:45.694Z,25.52
2022-08-31T17:12:17.184Z,25.54
2022-08-31T17:14:50.211Z,25.45
2022-08-31T17:17:26.339Z,25.23
2022-08-31T17:19:55.717Z,25.32
2022-08-31T17:22:29.892Z,25.58
2022-08-31T17:25:00.260Z,25.44
2022-08-31T17:27:27.324Z,25.39
2022-08-31T17:29:56.323Z,25.46
2022-08-31T17:32:26.463Z,25.38
2022-08-31T17:34:54.530Z,25.59
2022-08-31T17:37:27.822Z,25.24
2022-08-31T17:39:55.964Z,25.20
2022-08-31T17:42:27.025Z,24.95
2022-08-31T17:44:54.659Z,25.06
2022-08-31T17:47:23.507Z,25.03
2022-08-31T17:49:50.968Z,24.92
2022-08-31T17:52:20.577Z,24.73
2022-08-31T17:54:48.553Z,24.75
2022-08-31T17:57:16.214Z,24.71
2022-08-31T17:59:46.314Z,24.66
2022-08-31T18:02:19.075Z,24.66
2022-08-31T18:04:45.742Z,24.58
2022-08-31T18:07:12.533Z,24.62
2022-08-31T18:09:41.459Z,24.48
2022-08-31T18:12:08.910Z,24.24
2022-08-31T18:14:38.141Z,24.26
2022-08-31T18:17:08.525Z,24.26
2022-08-31T18:19:35.118Z,23.96
2022-08-31T18:22:01.641Z,24.05
2022-08-31T18:24:31.124Z,24.14
2022-08-31T18:26:58.880Z,24.08
2022-08-31T18:29:26.776Z,24.03
2022-08-31T18:31:54.228Z,23.71
2022-08-31T18:34:23.226Z,23.67
2022-08-31T18:36:51.619Z,23.72
2022-08-31T18:39:34.774Z,23.69
2022-08-31T18:42:27.721Z,23.57
2022-08-31T18:45:13.365Z,23.52
2022-08-31T18:47:39.991Z,23.52
2022-08-31T18:50:06.882Z,23.48
2022-08-31T18:52:33.440Z,23.44
2022-08-31T18:55:01.003Z,23.46
2022-08-31T18:57:27.940Z,23.46
2022-08-31T18:59:54.983Z,23.20
2022-08-31T19:02:23.085Z,23.32
2022-08-31T19:04:51.142Z,23.17
2022-08-31T19:07:22.345Z,23.01
2022-08-31T19:09:49.439Z,22.91
2022-08-31T19:12:24.551Z,22.85
2022-08-31T19:14:52.007Z,22.97
2022-08-31T19:17:19.832Z,22.94
2022-08-31T19:19:48.975Z,22.77
2022-08-31T19:22:16.783Z,22.56
2022-08-31T19:24:43.521Z,22.72
2022-08-31T19:27:10.643Z,22.63
2022-08-31T19:29:38.371Z,22.65
2022-08-31T19:32:06.459Z,22.59
2022-08-31T19:34:36.226Z,22.59
2022-08-31T19:37:03.224Z,22.39
2022-08-31T19:39:36.287Z,22.36
2022-08-31T19:42:07.085Z,22.36
2022-08-31T19:47:25.678Z,22.19
2022-08-31T19:49:52.802Z,22.22
2022-08-31T19:52:20.523Z,22.11
2022-08-31T19:54:48.554Z,22.25
2022-08-31T19:57:16.720Z,22.12
2022-08-31T19:59:43.537Z,22.08
2022-08-31T20:02:10.221Z,22.07
2022-08-31T20:04:36.826Z,22.06
2022-08-31T20:07:06.525Z,21.88
2022-08-31T20:09:34.883Z,21.88
2022-08-31T20:12:02.092Z,21.74
2022-08-31T20:14:28.708Z,21.89
2022-08-31T20:16:55.261Z,21.71
2022-08-31T20:19:25.188Z,21.73
2022-08-31T20:21:54.070Z,21.60
2022-08-31T20:24:22.982Z,21.46
2022-08-31T20:26:51.826Z,21.44
2022-08-31T20:29:19.537Z,21.46
2022-08-31T20:31:49.485Z,21.51
2022-08-31T20:34:19.137Z,21.40
2022-08-31T20:36:48.297Z,21.45
2022-08-31T20:39:17.292Z,21.27
2022-08-31T20:41:49.186Z,21.10
2022-08-31T20:44:27.702Z,20.98
2022-08-31T20:47:18.897Z,20.96
2022-08-31T20:49:50.505Z,20.98
2022-08-31T20:52:17.721Z,20.89
2022-08-31T20:54:44.622Z,20.78
2022-08-31T20:57:13.471Z,20.50
2022-08-31T20:59:41.391Z,20.48
2022-08-31T21:02:11.306Z,20.34
2022-08-31T21:04:42.347Z,20.59
2022-08-31T21:07:11.964Z,20.47
2022-08-31T21:09:40.947Z,20.49
2022-08-31T21:12:07.973Z,20.28
2022-08-31T21:14:36.549Z,20.28
2022-08-31T21:17:06.045Z,20.32
2022-08-31T21:19:39.197Z,20.22
2022-08-31T21:22:07.625Z,20.22
2022-08-31T21:24:38.662Z,20.26
2022-08-31T21:27:06.933Z,20.21
2022-08-31T21:29:35.467Z,20.25
2022-08-31T21:32:04.482Z,20.30
2022-08-31T21:34:31.521Z,20.16
2022-08-31T21:36:58.062Z,20.02
2022-08-31T21:39:24.970Z,20.04
2022-08-31T21:41:51.592Z,20.08
2022-08-31T21:44:20.859Z,19.83
2022-08-31T21:46:50.644Z,19.89
2022-08-31T21:49:18.268Z,19.82
2022-08-31T21:51:50.753Z,19.68
2022-08-31T21:54:19.344Z,19.51
2022-08-31T21:56:48.409Z,19.65
2022-08-31T21:59:16.788Z,19.66
2022-08-31T22:01:43.990Z,19.61
2022-08-31T22:04:12.149Z,19.50
2022-08-31T22:06:40.792Z,19.56
2022-08-31T22:09:18.833Z,19.35
2022-08-31T22:11:46.788Z,19.44
2022-08-31T22:14:18.949Z,19.31
2022-08-31T22:16:48.013Z,19.36
2022-08-31T22:19:20.699Z,19.27
2022-08-31T22:21:50.143Z,19.17
2022-08-31T22:24:27.097Z,19.21
2022-08-31T22:26:55.687Z,19.35
2022-08-31T22:29:25.085Z,19.21
2022-08-31T22:31:54.124Z,19.38
2022-08-31T22:34:21.164Z,19.46
2022-08-31T22:36:50.423Z,19.28
2022-08-31T22:39:19.161Z,19.25
2022-08-31T22:41:47.203Z,19.29
2022-08-31T22:44:17.298Z,19.24
2022-08-31T22:46:44.296Z,19.18
2022-08-31T22:49:10.996Z,19.19
2022-08-31T22:51:39.687Z,19.34
2022-08-31T22:54:06.927Z,19.14
2022-08-31T22:56:35.417Z,19.15
2022-08-31T22:59:05.000Z,18.98
2022-08-31T23:01:35.109Z,19.10
2022-08-31T23:04:06.571Z,19.14
2022-08-31T23:06:35.078Z,18.91
2022-08-31T23:09:02.903Z,18.90
2022-08-31T23:11:29.591Z,18.93
2022-08-31T23:13:58.577Z,18.87
2022-08-31T23:16:34.655Z,18.87
2022-08-31T23:19:12.139Z,18.77
2022-08-31T23:21:44.999Z,18.73
2022-08-31T23:24:13.049Z,18.44
2022-08-31T23:26:40.610Z,18.34
2022-08-31T23:29:09.373Z,18.30
2022-08-31T23:31:37.665Z,18.70
2022-08-31T23:34:09.659Z,18.53
2022-08-31T23:36:36.199Z,18.52
2022-08-31T23:39:04.914Z,18.65
2022-08-31T23:41:34.804Z,18.71
2022-08-31T23:44:08.629Z,18.56
2022-08-31T23:46:36.997Z,18.41
2022-08-31T23:49:06.878Z,18.30
2022-08-31T23:51:33.623Z,18.23
2022-08-31T23:54:00.882Z,18.03
2022-08-31T23:56:36.068Z,18.19
2022-08-31T23:59:08.915Z,17.99
